Airfield :
LOGIN :

Register | Disclaimer

   EN    FR    IT 

 










Legend :    VFR   Marginal VFR   IFR   Intensive IFR   Very Intensive IFR
Visi :
Ceiling :
>= 8 km
>= 3000ft
5 to 8 km
1000 to 3000 ft
1500m to 5 km
500 to 1000 ft
800 to 1500m
200 to 500 ft
< 800m
< 200 ft
Symbols :   Thunderstorms  Fog  Heavy snow  Heavy precipitations  Wind > 20 kt
SIGMETs :     Misc.  Thunderstorms  Icing  Turbulence  Mountain Waves  Volcanic Ashes







- Airport Elevation : 47 ft
- IATA code : CBG
- Download approach charts


EGSC - Cambridge

CURRENT METAR :
  • 241320Z 14011KT 110V170 CAVOK 20/11 Q1019

EXPIRED METARs :
  • 241250Z 14011KT CAVOK 21/11 Q1019
  • 241220Z 15011KT 120V180 CAVOK 20/11 Q1019
  • 241150Z 14010KT 9999 FEW049 20/11 Q1020
  • 241120Z 15011KT 9999 FEW046 20/11 Q1020
  • 241050Z 16012KT 9999 FEW046 20/12 Q1020

TAF TAF EGSC
Valid from the 24 at 12:00 until the 24 at 19:00 UTC


241103Z 2412/2419 14009KT CAVOK
PROB30
TEMPO 2417/2419 9000 -RA BKN045
No reported NOTAMs for that airfield.



MET'MAP, your aeronautical weather chart ! - Copyright ORBIFLY December 2007 - Disclaimer

ORBIFLY MET'MAP TEAM :

Programming & Development : Alexandra Zaïnal
Concept & Development : Baudouin d'Aumeries
Co-Development & Prog : Marc-Olivier Méhu
Technical & hardware support : Manuel Goepfert

Contact : metmap@orbifly.com




SOURCES & CREDITS :

   NOAA